Overview Statistics Trail Chart Weather Telemetry Raw packets
 

This is the latest recevied weather packets stored in our database for station/object HK4LRM-13. If no packets are shown the sender has not sent any weather packets the latest 10 day(s).

<< 1 2 3 4 5 6 >>
Time Temp. Humidity Pressure Rain* Wind** Luminosity Snow
1788548263 27.22° C 44% 1008 hPa 0 mm - - -
1788547722 27.22° C 44% 1009 hPa 0 mm - - -
1788547182 26.67° C 44% 1009 hPa 0 mm - - -
1788546641 26.67° C 44% 1009 hPa 0 mm - - -
1788546101 27.22° C 44% 1010 hPa 0 mm - - -
1788545560 26.67° C 44% 1010 hPa 0 mm - - -
1788545020 27.22° C 44% 1010 hPa 0 mm - - -
1788544479 26.67° C 45% 1010 hPa 0 mm - - -
1788543939 26.67° C 45% 1010 hPa 0 mm - - -
1788543398 26.67° C 46% 1010 hPa 0 mm - - -
1788542857 26.11° C 46% 1012 hPa 0 mm - - -
1788542317 26.67° C 46% 1012 hPa 0 mm - - -
1788541777 26.11° C 45% 1012 hPa 0 mm - - -
1788541236 26.11° C 46% 1011 hPa 0 mm - - -
1788540696 26.67° C 46% 1012 hPa 0 mm - - -
1788540155 26.67° C 46% 1012 hPa 0 mm - - -
1788539615 25.56° C 57% 1013 hPa 0 mm - - -
1788539074 25.56° C 57% 1013 hPa 0 mm - - -
1788538534 25.56° C 56% 1013 hPa 0 mm - - -
1788537993 26.11° C 54% 1013 hPa 0 mm - - -
1788537453 25.56° C 54% 1013 hPa 0 mm - - -
1788536912 25.56° C 55% 1013 hPa 0 mm - - -
1788536372 24.44° C 60% 1014 hPa 0 mm - - -
1788535831 24.44° C 60% 1014 hPa 0 mm - - -
1788535291 24.44° C 60% 1014 hPa 0 mm - - -

* Rain latest hour (hover to see other rain measurements)
** Current wind speed in m/s (hover to see current wind gust speed)